sensor_id;sensor_type;location;lat;lon;timestamp;pressure;altitude;pressure_sealevel;temperature;humidity
19286;BME280;9776;50.798;6.430;2024-02-21T00:01:37;100969.16;;;10.40;63.76
19286;BME280;9776;50.798;6.430;2024-02-21T00:04:06;100969.31;;;10.38;63.82
19286;BME280;9776;50.798;6.430;2024-02-21T00:06:33;100961.53;;;10.37;63.96
19286;BME280;9776;50.798;6.430;2024-02-21T00:09:00;100964.03;;;10.38;64.01
19286;BME280;9776;50.798;6.430;2024-02-21T00:11:28;100955.69;;;10.33;64.31
19286;BME280;9776;50.798;6.430;2024-02-21T00:13:55;100966.50;;;10.30;64.11
19286;BME280;9776;50.798;6.430;2024-02-21T00:16:22;100959.13;;;10.34;64.04
19286;BME280;9776;50.798;6.430;2024-02-21T00:18:50;100950.38;;;10.23;64.43
19286;BME280;9776;50.798;6.430;2024-02-21T00:21:17;100949.25;;;10.26;64.37
19286;BME280;9776;50.798;6.430;2024-02-21T00:23:44;100943.03;;;10.27;64.37
19286;BME280;9776;50.798;6.430;2024-02-21T00:26:12;100934.84;;;10.30;64.17
19286;BME280;9776;50.798;6.430;2024-02-21T00:28:39;100936.75;;;10.28;64.51
19286;BME280;9776;50.798;6.430;2024-02-21T00:31:06;100925.94;;;10.21;64.62
19286;BME280;9776;50.798;6.430;2024-02-21T00:33:35;100933.00;;;10.21;64.57
19286;BME280;9776;50.798;6.430;2024-02-21T00:36:04;100935.38;;;10.24;64.62
19286;BME280;9776;50.798;6.430;2024-02-21T00:38:33;100927.31;;;10.25;64.51
19286;BME280;9776;50.798;6.430;2024-02-21T00:41:01;100935.91;;;10.27;64.28
19286;BME280;9776;50.798;6.430;2024-02-21T00:43:28;100928.16;;;10.26;64.60
19286;BME280;9776;50.798;6.430;2024-02-21T00:45:55;100935.22;;;10.25;64.51
19286;BME280;9776;50.798;6.430;2024-02-21T00:48:22;100933.38;;;10.16;64.92
19286;BME280;9776;50.798;6.430;2024-02-21T00:50:49;100928.38;;;10.13;64.99
19286;BME280;9776;50.798;6.430;2024-02-21T00:53:17;100928.69;;;10.20;64.80
19286;BME280;9776;50.798;6.430;2024-02-21T00:55:44;100916.34;;;10.20;64.69
19286;BME280;9776;50.798;6.430;2024-02-21T00:58:11;100922.31;;;10.22;64.88
19286;BME280;9776;50.798;6.430;2024-02-21T01:00:38;100913.81;;;10.19;64.82
19286;BME280;9776;50.798;6.430;2024-02-21T01:03:05;100915.91;;;10.25;64.97
19286;BME280;9776;50.798;6.430;2024-02-21T01:05:32;100900.53;;;10.30;64.88
19286;BME280;9776;50.798;6.430;2024-02-21T01:07:59;100909.28;;;10.31;64.55
19286;BME280;9776;50.798;6.430;2024-02-21T01:10:28;100906.09;;;10.27;65.05
19286;BME280;9776;50.798;6.430;2024-02-21T01:12:55;100903.72;;;10.34;64.84
19286;BME280;9776;50.798;6.430;2024-02-21T01:15:22;100898.19;;;10.37;64.84
19286;BME280;9776;50.798;6.430;2024-02-21T01:17:49;100890.00;;;10.40;64.58
19286;BME280;9776;50.798;6.430;2024-02-21T01:20:20;100882.78;;;10.32;64.73
19286;BME280;9776;50.798;6.430;2024-02-21T01:22:47;100888.16;;;10.31;64.81
19286;BME280;9776;50.798;6.430;2024-02-21T01:25:14;100892.91;;;10.37;64.84
19286;BME280;9776;50.798;6.430;2024-02-21T01:27:44;100886.81;;;10.46;64.58
19286;BME280;9776;50.798;6.430;2024-02-21T01:30:11;100891.56;;;10.52;64.42
19286;BME280;9776;50.798;6.430;2024-02-21T01:32:39;100891.03;;;10.58;64.62
19286;BME280;9776;50.798;6.430;2024-02-21T01:35:07;100887.16;;;10.62;64.29
19286;BME280;9776;50.798;6.430;2024-02-21T01:37:35;100887.44;;;10.59;64.59
19286;BME280;9776;50.798;6.430;2024-02-21T01:40:02;100882.97;;;10.50;64.52
19286;BME280;9776;50.798;6.430;2024-02-21T01:42:29;100885.88;;;10.47;64.65
19286;BME280;9776;50.798;6.430;2024-02-21T01:44:58;100888.50;;;10.47;64.91
19286;BME280;9776;50.798;6.430;2024-02-21T01:47:25;100882.81;;;10.51;64.66
19286;BME280;9776;50.798;6.430;2024-02-21T01:49:53;100881.81;;;10.43;64.96
19286;BME280;9776;50.798;6.430;2024-02-21T01:52:20;100878.75;;;10.38;65.09
19286;BME280;9776;50.798;6.430;2024-02-21T01:54:47;100874.31;;;10.38;65.20
19286;BME280;9776;50.798;6.430;2024-02-21T01:57:14;100861.81;;;10.40;64.96
19286;BME280;9776;50.798;6.430;2024-02-21T01:59:42;100860.00;;;10.41;64.86
19286;BME280;9776;50.798;6.430;2024-02-21T02:02:11;100852.38;;;10.38;65.21
19286;BME280;9776;50.798;6.430;2024-02-21T02:04:39;100851.22;;;10.31;65.29
19286;BME280;9776;50.798;6.430;2024-02-21T02:07:07;100854.84;;;10.30;65.21
19286;BME280;9776;50.798;6.430;2024-02-21T02:09:35;100861.34;;;10.25;65.53
19286;BME280;9776;50.798;6.430;2024-02-21T02:12:02;100844.69;;;10.25;65.37
19286;BME280;9776;50.798;6.430;2024-02-21T02:14:29;100844.00;;;10.23;65.55
19286;BME280;9776;50.798;6.430;2024-02-21T02:16:56;100831.66;;;10.23;65.64
19286;BME280;9776;50.798;6.430;2024-02-21T02:19:25;100831.06;;;10.20;65.43
19286;BME280;9776;50.798;6.430;2024-02-21T02:21:56;100815.66;;;10.15;65.73
19286;BME280;9776;50.798;6.430;2024-02-21T02:24:28;100818.41;;;10.14;65.48
19286;BME280;9776;50.798;6.430;2024-02-21T02:26:55;100821.28;;;10.11;65.60
19286;BME280;9776;50.798;6.430;2024-02-21T02:29:22;100820.34;;;10.12;65.67
19286;BME280;9776;50.798;6.430;2024-02-21T02:31:49;100826.44;;;10.12;65.65
19286;BME280;9776;50.798;6.430;2024-02-21T02:34:17;100821.16;;;10.12;65.47
19286;BME280;9776;50.798;6.430;2024-02-21T02:36:44;100813.97;;;10.14;65.68
19286;BME280;9776;50.798;6.430;2024-02-21T02:39:14;100809.41;;;10.16;65.45
19286;BME280;9776;50.798;6.430;2024-02-21T02:41:43;100814.81;;;10.15;65.37
19286;BME280;9776;50.798;6.430;2024-02-21T02:44:10;100811.47;;;10.13;65.71
19286;BME280;9776;50.798;6.430;2024-02-21T02:46:40;100800.25;;;10.20;65.47
19286;BME280;9776;50.798;6.430;2024-02-21T02:49:07;100799.41;;;10.20;65.45
19286;BME280;9776;50.798;6.430;2024-02-21T02:51:34;100801.78;;;10.23;65.18
19286;BME280;9776;50.798;6.430;2024-02-21T02:54:02;100790.41;;;10.22;65.26
19286;BME280;9776;50.798;6.430;2024-02-21T02:56:30;100797.09;;;10.27;65.21
19286;BME280;9776;50.798;6.430;2024-02-21T02:58:59;100778.88;;;10.23;64.93
19286;BME280;9776;50.798;6.430;2024-02-21T03:01:28;100767.50;;;10.23;65.11
19286;BME280;9776;50.798;6.430;2024-02-21T03:03:55;100769.84;;;10.26;65.04
19286;BME280;9776;50.798;6.430;2024-02-21T03:06:32;100758.44;;;10.16;65.22
19286;BME280;9776;50.798;6.430;2024-02-21T03:08:58;100744.69;;;10.12;65.16
19286;BME280;9776;50.798;6.430;2024-02-21T03:11:26;100746.88;;;10.07;65.36
19286;BME280;9776;50.798;6.430;2024-02-21T03:13:55;100738.16;;;10.07;65.19
19286;BME280;9776;50.798;6.430;2024-02-21T03:16:23;100748.97;;;10.04;65.14
19286;BME280;9776;50.798;6.430;2024-02-21T03:18:51;100745.63;;;10.02;65.45
19286;BME280;9776;50.798;6.430;2024-02-21T03:21:18;100748.13;;;10.03;65.28
19286;BME280;9776;50.798;6.430;2024-02-21T03:23:45;100747.13;;;10.04;65.39
19286;BME280;9776;50.798;6.430;2024-02-21T03:26:12;100747.72;;;10.08;65.14
19286;BME280;9776;50.798;6.430;2024-02-21T03:28:42;100750.06;;;10.11;64.96
19286;BME280;9776;50.798;6.430;2024-02-21T03:31:11;100739.00;;;10.17;64.91
19286;BME280;9776;50.798;6.430;2024-02-21T03:33:42;100739.31;;;10.23;64.51
19286;BME280;9776;50.798;6.430;2024-02-21T03:36:13;100738.19;;;10.16;64.80
19286;BME280;9776;50.798;6.430;2024-02-21T03:38:41;100736.88;;;10.11;64.81
19286;BME280;9776;50.798;6.430;2024-02-21T03:41:08;100728.13;;;10.10;64.74
19286;BME280;9776;50.798;6.430;2024-02-21T03:43:37;100732.22;;;10.14;64.54
19286;BME280;9776;50.798;6.430;2024-02-21T03:46:04;100724.03;;;10.17;64.49
19286;BME280;9776;50.798;6.430;2024-02-21T03:48:36;100732.91;;;10.16;64.52
19286;BME280;9776;50.798;6.430;2024-02-21T03:51:05;100734.31;;;10.20;64.51
19286;BME280;9776;50.798;6.430;2024-02-21T03:53:32;100736.78;;;10.22;64.26
19286;BME280;9776;50.798;6.430;2024-02-21T03:56:03;100722.50;;;10.15;64.56
19286;BME280;9776;50.798;6.430;2024-02-21T03:58:31;100724.31;;;10.14;64.55
19286;BME280;9776;50.798;6.430;2024-02-21T04:01:00;100724.72;;;10.19;64.46
19286;BME280;9776;50.798;6.430;2024-02-21T04:03:27;100733.75;;;10.17;64.32
19286;BME280;9776;50.798;6.430;2024-02-21T04:05:54;100731.03;;;10.07;64.57
19286;BME280;9776;50.798;6.430;2024-02-21T04:08:23;100717.84;;;10.07;64.71
19286;BME280;9776;50.798;6.430;2024-02-21T04:10:50;100721.59;;;10.05;64.83
19286;BME280;9776;50.798;6.430;2024-02-21T04:13:17;100714.38;;;9.97;64.90
19286;BME280;9776;50.798;6.430;2024-02-21T04:15:44;100710.06;;;9.96;64.98
19286;BME280;9776;50.798;6.430;2024-02-21T04:18:12;100714.50;;;9.96;65.02
19286;BME280;9776;50.798;6.430;2024-02-21T04:20:40;100713.44;;;9.98;65.03
19286;BME280;9776;50.798;6.430;2024-02-21T04:23:07;100719.69;;;10.07;64.93
19286;BME280;9776;50.798;6.430;2024-02-21T04:25:35;100698.16;;;10.11;65.09
19286;BME280;9776;50.798;6.430;2024-02-21T04:28:03;100708.19;;;10.17;64.69
19286;BME280;9776;50.798;6.430;2024-02-21T04:30:30;100705.28;;;10.20;64.70
19286;BME280;9776;50.798;6.430;2024-02-21T04:32:57;100707.94;;;10.20;64.95
19286;BME280;9776;50.798;6.430;2024-02-21T04:35:24;100688.63;;;10.20;64.93
19286;BME280;9776;50.798;6.430;2024-02-21T04:37:51;100690.84;;;10.24;65.00
19286;BME280;9776;50.798;6.430;2024-02-21T04:40:19;100696.00;;;10.26;64.95
19286;BME280;9776;50.798;6.430;2024-02-21T04:42:49;100696.28;;;10.33;64.99
19286;BME280;9776;50.798;6.430;2024-02-21T04:45:16;100695.44;;;10.32;65.04
19286;BME280;9776;50.798;6.430;2024-02-21T04:47:45;100697.91;;;10.34;65.13
19286;BME280;9776;50.798;6.430;2024-02-21T04:50:13;100693.22;;;10.37;64.80
19286;BME280;9776;50.798;6.430;2024-02-21T04:52:40;100687.09;;;10.37;64.99
19286;BME280;9776;50.798;6.430;2024-02-21T04:55:07;100687.25;;;10.35;64.96
19286;BME280;9776;50.798;6.430;2024-02-21T04:57:34;100692.81;;;10.32;65.22
19286;BME280;9776;50.798;6.430;2024-02-21T05:00:03;100683.63;;;10.36;65.15
19286;BME280;9776;50.798;6.430;2024-02-21T05:02:30;100680.56;;;10.41;64.88
19286;BME280;9776;50.798;6.430;2024-02-21T05:04:58;100688.50;;;10.41;64.87
19286;BME280;9776;50.798;6.430;2024-02-21T05:07:25;100681.94;;;10.45;64.94
19286;BME280;9776;50.798;6.430;2024-02-21T05:09:53;100678.78;;;10.41;64.81
19286;BME280;9776;50.798;6.430;2024-02-21T05:12:20;100682.09;;;10.43;65.05
19286;BME280;9776;50.798;6.430;2024-02-21T05:14:48;100682.94;;;10.44;64.98
19286;BME280;9776;50.798;6.430;2024-02-21T05:17:17;100676.81;;;10.43;64.97
19286;BME280;9776;50.798;6.430;2024-02-21T05:19:43;100667.78;;;10.46;64.93
19286;BME280;9776;50.798;6.430;2024-02-21T05:22:11;100667.38;;;10.50;64.66
19286;BME280;9776;50.798;6.430;2024-02-21T05:24:39;100671.09;;;10.48;64.77
19286;BME280;9776;50.798;6.430;2024-02-21T05:27:06;100672.38;;;10.44;64.75
19286;BME280;9776;50.798;6.430;2024-02-21T05:29:34;100667.38;;;10.41;64.93
19286;BME280;9776;50.798;6.430;2024-02-21T05:32:01;100663.78;;;10.42;64.85
19286;BME280;9776;50.798;6.430;2024-02-21T05:34:30;100660.72;;;10.46;64.68
19286;BME280;9776;50.798;6.430;2024-02-21T05:36:57;100669.31;;;10.48;64.75
19286;BME280;9776;50.798;6.430;2024-02-21T05:39:25;100662.91;;;10.51;64.59
19286;BME280;9776;50.798;6.430;2024-02-21T05:41:52;100664.59;;;10.52;64.66
19286;BME280;9776;50.798;6.430;2024-02-21T05:44:19;100669.31;;;10.58;64.70
19286;BME280;9776;50.798;6.430;2024-02-21T05:46:47;100661.50;;;10.56;64.75
19286;BME280;9776;50.798;6.430;2024-02-21T05:49:14;100653.47;;;10.58;64.56
19286;BME280;9776;50.798;6.430;2024-02-21T05:51:43;100652.50;;;10.59;64.42
19286;BME280;9776;50.798;6.430;2024-02-21T05:54:09;100651.91;;;10.65;64.55
19286;BME280;9776;50.798;6.430;2024-02-21T05:56:43;100645.66;;;10.66;64.41
19286;BME280;9776;50.798;6.430;2024-02-21T05:59:10;100638.03;;;10.63;64.71
19286;BME280;9776;50.798;6.430;2024-02-21T06:01:37;100642.06;;;10.67;64.34
19286;BME280;9776;50.798;6.430;2024-02-21T06:04:04;100628.72;;;10.68;64.40
19286;BME280;9776;50.798;6.430;2024-02-21T06:06:31;100621.34;;;10.72;64.71
19286;BME280;9776;50.798;6.430;2024-02-21T06:09:00;100623.53;;;10.76;64.42
19286;BME280;9776;50.798;6.430;2024-02-21T06:11:28;100619.09;;;10.77;64.63
19286;BME280;9776;50.798;6.430;2024-02-21T06:13:55;100631.19;;;10.79;64.30
19286;BME280;9776;50.798;6.430;2024-02-21T06:16:22;100635.66;;;10.79;64.33
19286;BME280;9776;50.798;6.430;2024-02-21T06:18:49;100632.28;;;10.77;64.32
19286;BME280;9776;50.798;6.430;2024-02-21T06:21:16;100634.53;;;10.72;64.47
19286;BME280;9776;50.798;6.430;2024-02-21T06:23:43;100634.53;;;10.72;64.55
19286;BME280;9776;50.798;6.430;2024-02-21T06:26:12;100626.22;;;10.67;64.69
19286;BME280;9776;50.798;6.430;2024-02-21T06:28:39;100629.00;;;10.65;64.82
19286;BME280;9776;50.798;6.430;2024-02-21T06:31:09;100637.34;;;10.61;64.85
19286;BME280;9776;50.798;6.430;2024-02-21T06:33:36;100627.63;;;10.61;64.83
19286;BME280;9776;50.798;6.430;2024-02-21T06:36:03;100626.63;;;10.62;64.95
19286;BME280;9776;50.798;6.430;2024-02-21T06:38:33;100618.97;;;10.69;64.67
19286;BME280;9776;50.798;6.430;2024-02-21T06:41:00;100617.59;;;10.65;64.94
19286;BME280;9776;50.798;6.430;2024-02-21T06:43:30;100614.28;;;10.63;64.87
19286;BME280;9776;50.798;6.430;2024-02-21T06:45:59;100610.56;;;10.56;65.04
19286;BME280;9776;50.798;6.430;2024-02-21T06:48:26;100609.59;;;10.47;65.21
19286;BME280;9776;50.798;6.430;2024-02-21T06:50:55;100610.56;;;10.37;65.42
19286;BME280;9776;50.798;6.430;2024-02-21T06:53:22;100606.97;;;10.28;65.67
19286;BME280;9776;50.798;6.430;2024-02-21T06:55:51;100609.06;;;10.24;65.80
19286;BME280;9776;50.798;6.430;2024-02-21T06:58:20;100603.38;;;10.19;65.94
19286;BME280;9776;50.798;6.430;2024-02-21T07:00:52;100595.63;;;10.18;65.87
19286;BME280;9776;50.798;6.430;2024-02-21T07:03:21;100602.69;;;10.17;65.96
19286;BME280;9776;50.798;6.430;2024-02-21T07:05:50;100597.09;;;10.11;65.99
19286;BME280;9776;50.798;6.430;2024-02-21T07:08:16;100594.63;;;10.09;66.02
19286;BME280;9776;50.798;6.430;2024-02-21T07:10:43;100598.22;;;10.08;65.91
19286;BME280;9776;50.798;6.430;2024-02-21T07:13:11;100606.28;;;10.07;65.97
19286;BME280;9776;50.798;6.430;2024-02-21T07:15:38;100606.00;;;10.10;65.93
19286;BME280;9776;50.798;6.430;2024-02-21T07:18:07;100602.69;;;10.17;65.50
19286;BME280;9776;50.798;6.430;2024-02-21T07:20:34;100611.16;;;10.21;65.35
19286;BME280;9776;50.798;6.430;2024-02-21T07:23:03;100606.28;;;10.16;65.37
19286;BME280;9776;50.798;6.430;2024-02-21T07:25:31;100611.13;;;10.11;65.48
19286;BME280;9776;50.798;6.430;2024-02-21T07:27:58;100605.72;;;10.03;65.62
19286;BME280;9776;50.798;6.430;2024-02-21T07:30:25;100599.59;;;10.03;65.69
19286;BME280;9776;50.798;6.430;2024-02-21T07:32:53;100604.88;;;10.03;65.55
19286;BME280;9776;50.798;6.430;2024-02-21T07:35:22;100604.88;;;10.03;65.33
19286;BME280;9776;50.798;6.430;2024-02-21T07:38:04;100608.75;;;9.99;65.12
19286;BME280;9776;50.798;6.430;2024-02-21T07:40:31;100608.47;;;10.02;65.18
19286;BME280;9776;50.798;6.430;2024-02-21T07:42:58;100604.72;;;10.04;65.20
19286;BME280;9776;50.798;6.430;2024-02-21T07:45:26;100596.25;;;10.10;65.02
19286;BME280;9776;50.798;6.430;2024-02-21T07:47:53;100595.75;;;10.16;64.53
19286;BME280;9776;50.798;6.430;2024-02-21T07:50:23;100592.13;;;10.17;64.69
19286;BME280;9776;50.798;6.430;2024-02-21T07:52:51;100585.34;;;10.15;64.85
19286;BME280;9776;50.798;6.430;2024-02-21T07:55:18;100584.91;;;10.19;64.39
19286;BME280;9776;50.798;6.430;2024-02-21T07:57:50;100580.03;;;10.24;64.25
19286;BME280;9776;50.798;6.430;2024-02-21T08:00:19;100581.03;;;10.23;64.17
19286;BME280;9776;50.798;6.430;2024-02-21T08:02:48;100576.16;;;10.29;63.82
19286;BME280;9776;50.798;6.430;2024-02-21T08:05:15;100570.03;;;10.28;63.87
19286;BME280;9776;50.798;6.430;2024-02-21T08:07:44;100575.03;;;10.31;63.68
19286;BME280;9776;50.798;6.430;2024-02-21T08:10:15;100571.31;;;10.24;63.62
19286;BME280;9776;50.798;6.430;2024-02-21T08:12:42;100565.59;;;10.19;63.65
19286;BME280;9776;50.798;6.430;2024-02-21T08:15:10;100565.19;;;10.23;63.25
19286;BME280;9776;50.798;6.430;2024-02-21T08:17:37;100559.34;;;10.30;62.93
19286;BME280;9776;50.798;6.430;2024-02-21T08:20:05;100556.00;;;10.27;62.67
19286;BME280;9776;50.798;6.430;2024-02-21T08:22:33;100554.47;;;10.35;62.31
19286;BME280;9776;50.798;6.430;2024-02-21T08:25:02;100533.94;;;10.75;59.91
19286;BME280;9776;50.798;6.430;2024-02-21T08:27:31;100522.88;;;10.62;60.60
19286;BME280;9776;50.798;6.430;2024-02-21T08:29:58;100517.72;;;10.60;60.79
19286;BME280;9776;50.798;6.430;2024-02-21T08:32:28;100520.91;;;10.64;60.59
19286;BME280;9776;50.798;6.430;2024-02-21T08:34:55;100524.53;;;10.63;60.64
19286;BME280;9776;50.798;6.430;2024-02-21T08:37:22;100517.44;;;10.63;60.45
19286;BME280;9776;50.798;6.430;2024-02-21T08:39:50;100511.72;;;10.68;60.06
19286;BME280;9776;50.798;6.430;2024-02-21T08:42:18;100506.03;;;10.63;60.22
19286;BME280;9776;50.798;6.430;2024-02-21T08:44:45;100501.06;;;10.60;60.02
19286;BME280;9776;50.798;6.430;2024-02-21T08:47:12;100496.72;;;10.68;60.04
19286;BME280;9776;50.798;6.430;2024-02-21T08:49:39;100482.22;;;10.82;59.73
19286;BME280;9776;50.798;6.430;2024-02-21T08:52:06;100481.44;;;10.99;59.06
19286;BME280;9776;50.798;6.430;2024-02-21T08:54:39;100476.22;;;11.07;58.95
19286;BME280;9776;50.798;6.430;2024-02-21T08:57:06;100472.00;;;11.14;58.93
19286;BME280;9776;50.798;6.430;2024-02-21T08:59:35;100468.22;;;11.17;58.45
19286;BME280;9776;50.798;6.430;2024-02-21T09:02:02;100471.31;;;11.12;58.56
19286;BME280;9776;50.798;6.430;2024-02-21T09:04:29;100455.47;;;11.12;58.70
19286;BME280;9776;50.798;6.430;2024-02-21T09:06:57;100459.94;;;11.29;58.14
19286;BME280;9776;50.798;6.430;2024-02-21T09:09:24;100449.53;;;11.46;57.63
19286;BME280;9776;50.798;6.430;2024-02-21T09:11:51;100450.19;;;11.48;57.67
19286;BME280;9776;50.798;6.430;2024-02-21T09:14:19;100443.16;;;11.56;57.39
19286;BME280;9776;50.798;6.430;2024-02-21T09:16:49;100436.97;;;11.48;57.41
19286;BME280;9776;50.798;6.430;2024-02-21T09:19:17;100433.66;;;11.46;57.36
19286;BME280;9776;50.798;6.430;2024-02-21T09:21:44;100422.97;;;11.55;57.24
19286;BME280;9776;50.798;6.430;2024-02-21T09:24:12;100410.66;;;11.64;57.05
19286;BME280;9776;50.798;6.430;2024-02-21T09:26:39;100398.78;;;11.85;56.30
19286;BME280;9776;50.798;6.430;2024-02-21T09:29:10;100391.59;;;12.04;56.15
19286;BME280;9776;50.798;6.430;2024-02-21T09:31:38;100389.66;;;12.06;55.75
19286;BME280;9776;50.798;6.430;2024-02-21T09:34:07;100388.19;;;12.11;55.90
19286;BME280;9776;50.798;6.430;2024-02-21T09:36:34;100379.25;;;12.12;55.92
19286;BME280;9776;50.798;6.430;2024-02-21T09:39:03;100376.16;;;12.17;55.83
19286;BME280;9776;50.798;6.430;2024-02-21T09:41:37;100380.81;;;12.23;55.44
19286;BME280;9776;50.798;6.430;2024-02-21T09:44:14;100375.06;;;12.35;55.22
19286;BME280;9776;50.798;6.430;2024-02-21T09:46:51;100374.94;;;12.45;55.01
19286;BME280;9776;50.798;6.430;2024-02-21T09:49:30;100374.81;;;12.55;54.70
19286;BME280;9776;50.798;6.430;2024-02-21T09:52:02;100377.47;;;12.63;54.47
19286;BME280;9776;50.798;6.430;2024-02-21T09:54:29;100375.84;;;12.70;54.36
19286;BME280;9776;50.798;6.430;2024-02-21T09:56:56;100374.84;;;12.71;54.16
19286;BME280;9776;50.798;6.430;2024-02-21T09:59:31;100374.84;;;12.71;54.22
19286;BME280;9776;50.798;6.430;2024-02-21T10:01:59;100372.03;;;12.72;54.08
19286;BME280;9776;50.798;6.430;2024-02-21T10:04:30;100373.69;;;12.73;54.06
19286;BME280;9776;50.798;6.430;2024-02-21T10:06:59;100368.06;;;12.76;53.83
19286;BME280;9776;50.798;6.430;2024-02-21T10:09:27;100382.97;;;12.85;53.61
19286;BME280;9776;50.798;6.430;2024-02-21T10:11:55;100363.47;;;12.86;53.78
19286;BME280;9776;50.798;6.430;2024-02-21T10:14:25;100369.59;;;12.87;53.50
19286;BME280;9776;50.798;6.430;2024-02-21T10:17:04;100359.00;;;12.87;53.03
19286;BME280;9776;50.798;6.430;2024-02-21T10:19:36;100358.69;;;12.90;52.76
19286;BME280;9776;50.798;6.430;2024-02-21T10:22:06;100353.03;;;12.93;52.84
19286;BME280;9776;50.798;6.430;2024-02-21T10:24:34;100350.72;;;12.90;52.93
19286;BME280;9776;50.798;6.430;2024-02-21T10:27:04;100342.28;;;12.86;52.64
19286;BME280;9776;50.798;6.430;2024-02-21T10:29:38;100342.94;;;12.88;52.69
19286;BME280;9776;50.798;6.430;2024-02-21T10:32:07;100338.13;;;12.84;52.68
19286;BME280;9776;50.798;6.430;2024-02-21T10:34:37;100322.56;;;12.81;52.93
19286;BME280;9776;50.798;6.430;2024-02-21T10:37:05;100325.38;;;12.79;53.01
19286;BME280;9776;50.798;6.430;2024-02-21T10:39:33;100322.25;;;12.84;52.84
19286;BME280;9776;50.798;6.430;2024-02-21T10:42:01;100311.97;;;12.97;52.48
19286;BME280;9776;50.798;6.430;2024-02-21T10:44:31;100306.88;;;13.12;52.43
19286;BME280;9776;50.798;6.430;2024-02-21T10:46:59;100306.03;;;13.19;52.04
19286;BME280;9776;50.798;6.430;2024-02-21T10:49:26;100286.78;;;13.33;52.14
19286;BME280;9776;50.798;6.430;2024-02-21T10:52:06;100291.44;;;13.47;51.52
19286;BME280;9776;50.798;6.430;2024-02-21T10:54:43;100278.47;;;13.60;51.35
19286;BME280;9776;50.798;6.430;2024-02-21T10:57:12;100268.16;;;13.65;51.55
19286;BME280;9776;50.798;6.430;2024-02-21T10:59:40;100262.47;;;13.77;51.16
19286;BME280;9776;50.798;6.430;2024-02-21T11:02:07;100240.56;;;13.83;51.02
19286;BME280;9776;50.798;6.430;2024-02-21T11:04:41;100235.91;;;13.93;51.14
19286;BME280;9776;50.798;6.430;2024-02-21T11:07:10;100231.53;;;14.00;50.93
19286;BME280;9776;50.798;6.430;2024-02-21T11:09:37;100239.50;;;14.00;51.36
19286;BME280;9776;50.798;6.430;2024-02-21T11:12:06;100234.53;;;13.97;51.44
19286;BME280;9776;50.798;6.430;2024-02-21T11:14:34;100222.28;;;13.96;51.21
19286;BME280;9776;50.798;6.430;2024-02-21T11:17:02;100201.56;;;13.99;51.38
19286;BME280;9776;50.798;6.430;2024-02-21T11:19:30;100209.06;;;13.88;51.34
19286;BME280;9776;50.798;6.430;2024-02-21T11:21:58;100189.72;;;13.71;51.76
19286;BME280;9776;50.798;6.430;2024-02-21T11:24:29;100177.69;;;13.60;52.28
19286;BME280;9776;50.798;6.430;2024-02-21T11:27:08;100165.34;;;13.76;51.81
19286;BME280;9776;50.798;6.430;2024-02-21T11:29:40;100158.53;;;13.81;51.70
19286;BME280;9776;50.798;6.430;2024-02-21T11:32:09;100151.25;;;13.75;52.00
19286;BME280;9776;50.798;6.430;2024-02-21T11:34:37;100140.47;;;13.77;52.10
19286;BME280;9776;50.798;6.430;2024-02-21T11:37:13;100136.34;;;13.74;52.07
19286;BME280;9776;50.798;6.430;2024-02-21T11:39:44;100126.31;;;13.61;52.16
19286;BME280;9776;50.798;6.430;2024-02-21T11:42:14;100121.31;;;13.67;52.37
19286;BME280;9776;50.798;6.430;2024-02-21T11:44:41;100100.72;;;13.69;52.16
19286;BME280;9776;50.798;6.430;2024-02-21T11:47:09;100103.72;;;13.74;52.05
19286;BME280;9776;50.798;6.430;2024-02-21T11:49:37;100099.75;;;13.70;52.17
19286;BME280;9776;50.798;6.430;2024-02-21T11:52:05;100098.75;;;13.71;52.22
19286;BME280;9776;50.798;6.430;2024-02-21T11:54:33;100081.31;;;13.76;52.26
19286;BME280;9776;50.798;6.430;2024-02-21T11:57:02;100077.19;;;13.74;52.42
19286;BME280;9776;50.798;6.430;2024-02-21T11:59:33;100065.53;;;13.52;52.57
19286;BME280;9776;50.798;6.430;2024-02-21T12:02:06;100060.53;;;13.26;52.96
19286;BME280;9776;50.798;6.430;2024-02-21T12:04:38;100055.78;;;13.05;52.91
19286;BME280;9776;50.798;6.430;2024-02-21T12:07:06;100031.44;;;13.02;53.34
19286;BME280;9776;50.798;6.430;2024-02-21T12:09:34;100027.84;;;12.95;53.19
19286;BME280;9776;50.798;6.430;2024-02-21T12:12:06;100014.31;;;12.82;53.32
19286;BME280;9776;50.798;6.430;2024-02-21T12:14:35;99986.84;;;12.83;53.21
19286;BME280;9776;50.798;6.430;2024-02-21T12:17:04;99948.03;;;12.98;53.04
19286;BME280;9776;50.798;6.430;2024-02-21T12:19:33;99916.19;;;13.06;53.09
19286;BME280;9776;50.798;6.430;2024-02-21T12:22:01;99877.72;;;13.18;52.88
19286;BME280;9776;50.798;6.430;2024-02-21T12:24:31;99911.53;;;13.39;52.40
19286;BME280;9776;50.798;6.430;2024-02-21T12:26:58;99897.22;;;13.62;51.97
19286;BME280;9776;50.798;6.430;2024-02-21T12:29:26;99903.50;;;13.84;51.77
19286;BME280;9776;50.798;6.430;2024-02-21T12:31:57;99949.38;;;14.07;51.21
19286;BME280;9776;50.798;6.430;2024-02-21T12:34:24;99963.25;;;14.32;50.90
19286;BME280;9776;50.798;6.430;2024-02-21T12:36:52;99959.59;;;14.48;50.41
19286;BME280;9776;50.798;6.430;2024-02-21T12:39:19;99938.88;;;14.58;50.01
19286;BME280;9776;50.798;6.430;2024-02-21T12:41:46;99920.94;;;14.74;49.66
19286;BME280;9776;50.798;6.430;2024-02-21T12:44:13;99892.97;;;14.78;49.33
19286;BME280;9776;50.798;6.430;2024-02-21T12:46:43;99906.88;;;14.81;49.30
19286;BME280;9776;50.798;6.430;2024-02-21T12:49:10;99904.31;;;14.87;49.24
19286;BME280;9776;50.798;6.430;2024-02-21T12:51:37;99906.91;;;15.02;48.73
19286;BME280;9776;50.798;6.430;2024-02-21T12:54:05;99902.13;;;15.33;48.29
19286;BME280;9776;50.798;6.430;2024-02-21T12:56:32;99889.31;;;15.85;47.33
19286;BME280;9776;50.798;6.430;2024-02-21T12:59:03;99901.56;;;16.42;46.04
19286;BME280;9776;50.798;6.430;2024-02-21T13:01:30;99888.69;;;16.99;45.07
19286;BME280;9776;50.798;6.430;2024-02-21T13:03:59;99879.13;;;17.64;44.17
19286;BME280;9776;50.798;6.430;2024-02-21T13:06:28;99894.72;;;17.87;43.71